createdAt,value
2018-10-11T07:34:03.433Z,16.60
2018-10-11T07:36:36.093Z,16.40
2018-10-11T07:39:12.661Z,16.60
2018-10-11T07:41:45.012Z,16.80
2018-10-11T07:44:16.907Z,16.90
2018-10-11T07:46:50.053Z,17.00
2018-10-11T07:49:22.186Z,16.90
2018-10-11T07:51:54.456Z,16.90
2018-10-11T07:54:32.282Z,16.90
2018-10-11T07:57:04.543Z,16.90
2018-10-11T07:59:36.279Z,17.10
2018-10-11T08:02:08.636Z,17.20
2018-10-11T08:04:40.905Z,17.10
2018-10-11T08:07:13.062Z,17.10
2018-10-11T08:09:44.938Z,17.10
2018-10-11T08:12:17.102Z,17.20
2018-10-11T08:14:49.240Z,17.30
2018-10-11T08:17:21.295Z,17.40
2018-10-11T08:19:53.075Z,17.40
2018-10-11T08:22:26.104Z,17.40
2018-10-11T08:24:58.138Z,17.50
2018-10-11T08:27:30.360Z,17.60
2018-10-11T08:30:02.361Z,17.60
2018-10-11T08:32:34.116Z,17.60
2018-10-11T08:35:06.554Z,17.90
2018-10-11T08:37:39.235Z,18.00
2018-10-11T08:40:11.518Z,18.00
2018-10-11T08:42:43.722Z,18.10
2018-10-11T08:45:16.460Z,18.10
2018-10-11T08:47:48.477Z,18.10
2018-10-11T08:50:20.640Z,18.30
2018-10-11T08:52:52.330Z,18.50
2018-10-11T08:55:24.232Z,18.80
2018-10-11T08:57:56.101Z,18.70
2018-10-11T09:00:27.901Z,18.50
2018-10-11T09:03:00.621Z,18.70
2018-10-11T09:05:32.477Z,18.40
2018-10-11T09:08:04.590Z,18.10
2018-10-11T09:10:38.516Z,17.90
2018-10-11T09:13:09.169Z,17.70
2018-10-11T09:15:41.400Z,17.50
2018-10-11T09:18:13.096Z,17.30
2018-10-11T09:20:45.319Z,17.40
2018-10-11T09:23:17.530Z,17.40
2018-10-11T09:25:49.708Z,17.60
2018-10-11T09:28:21.773Z,17.70
2018-10-11T09:30:53.576Z,17.90
2018-10-11T09:33:25.333Z,17.90
2018-10-11T09:35:58.129Z,17.80
2018-10-11T09:38:29.857Z,17.90
2018-10-11T09:41:01.734Z,18.00
2018-10-11T09:43:33.965Z,17.90
2018-10-11T09:46:06.106Z,17.80
2018-10-11T09:48:38.129Z,17.70
2018-10-11T09:51:11.416Z,17.60
2018-10-11T09:53:43.233Z,17.50
2018-10-11T09:56:15.057Z,17.70
2018-10-11T09:58:47.056Z,18.20
2018-10-11T10:01:24.365Z,18.50
2018-10-11T10:03:56.427Z,18.90
2018-10-11T10:06:28.404Z,19.10
2018-10-11T10:09:00.695Z,19.30
2018-10-11T10:11:32.544Z,19.20
2018-10-11T10:14:04.460Z,19.00
2018-10-11T10:16:36.618Z,19.00
2018-10-11T10:19:09.639Z,18.90
2018-10-11T10:21:41.338Z,18.60
2018-10-11T10:24:13.067Z,18.60
2018-10-11T10:26:44.799Z,18.60
2018-10-11T10:29:16.705Z,18.50
2018-10-11T10:31:48.904Z,18.40
2018-10-11T10:34:21.339Z,18.40
2018-10-11T10:36:53.294Z,18.40
2018-10-11T10:39:25.614Z,18.50
2018-10-11T10:41:57.426Z,18.50
2018-10-11T10:44:30.505Z,18.40
2018-10-11T10:47:02.485Z,18.40
2018-10-11T10:49:34.286Z,18.50
2018-10-11T10:52:06.250Z,18.40
2018-10-11T10:54:38.386Z,18.30
2018-10-11T10:57:12.131Z,18.40
2018-10-11T10:59:44.274Z,18.50
2018-10-11T11:02:16.611Z,18.80
2018-10-11T11:04:48.427Z,19.20
2018-10-11T11:07:20.352Z,19.20
2018-10-11T11:09:52.105Z,19.20
2018-10-11T11:12:24.172Z,19.40
2018-10-11T11:14:56.161Z,19.60
2018-10-11T11:17:27.964Z,19.80
2018-10-11T11:19:59.789Z,19.80
2018-10-11T11:22:31.797Z,20.00
2018-10-11T11:25:03.779Z,20.10
2018-10-11T11:27:35.576Z,19.70
2018-10-11T11:30:07.609Z,19.40
2018-10-11T11:32:39.810Z,19.40
2018-10-11T11:35:11.854Z,19.60
2018-10-11T11:37:44.732Z,19.70
2018-10-11T11:40:16.735Z,19.60
2018-10-11T11:42:48.729Z,19.50
2018-10-11T11:45:20.760Z,19.60
2018-10-11T11:47:52.702Z,19.60
2018-10-11T11:50:25.011Z,19.40
2018-10-11T11:52:57.930Z,19.30
2018-10-11T11:55:29.972Z,19.10
2018-10-11T11:58:02.111Z,19.00
2018-10-11T12:00:34.064Z,19.20
2018-10-11T12:03:06.072Z,19.30
2018-10-11T12:05:38.145Z,19.40
2018-10-11T12:08:10.243Z,19.50
2018-10-11T12:10:42.770Z,19.60
2018-10-11T12:13:14.994Z,19.80
2018-10-11T12:15:47.214Z,19.80
2018-10-11T12:18:19.752Z,19.90
2018-10-11T12:20:51.870Z,20.00
2018-10-11T12:23:23.771Z,20.10
2018-10-11T12:25:56.337Z,20.20
2018-10-11T12:28:28.583Z,20.10
2018-10-11T12:31:00.876Z,20.20
2018-10-11T12:33:32.796Z,20.00
2018-10-11T12:36:05.841Z,19.80
2018-10-11T12:38:38.071Z,19.60
2018-10-11T12:41:10.518Z,19.60
2018-10-11T12:43:42.799Z,19.40
2018-10-11T12:46:13.931Z,19.30
2018-10-11T12:48:44.871Z,19.30
2018-10-11T12:51:15.883Z,19.30
2018-10-11T12:53:48.532Z,19.50
2018-10-11T12:56:18.040Z,19.70
2018-10-11T12:58:49.064Z,19.70
2018-10-11T13:01:22.977Z,19.70
2018-10-11T13:03:51.568Z,19.90
2018-10-11T13:06:22.761Z,20.00
2018-10-11T13:08:53.784Z,20.00
2018-10-11T13:11:24.774Z,20.00
2018-10-11T13:13:57.517Z,19.80
2018-10-11T13:16:28.432Z,19.80
2018-10-11T13:18:59.292Z,19.70
2018-10-11T13:21:30.454Z,19.70
2018-10-11T13:24:01.441Z,19.60
2018-10-11T13:26:32.350Z,19.30
2018-10-11T13:29:03.370Z,19.20
2018-10-11T13:31:34.308Z,19.10
2018-10-11T13:34:05.323Z,19.10
2018-10-11T13:36:36.217Z,19.30
2018-10-11T13:39:09.291Z,19.10
2018-10-11T13:41:40.578Z,19.00
2018-10-11T13:44:11.664Z,18.90
2018-10-11T13:46:42.885Z,18.80
2018-10-11T13:49:13.832Z,18.80
2018-10-11T13:51:44.809Z,18.80
2018-10-11T13:54:18.958Z,18.70
2018-10-11T13:56:53.880Z,18.70
2018-10-11T13:59:21.622Z,18.70
2018-10-11T14:01:52.679Z,18.60
2018-10-11T14:04:23.879Z,18.70
2018-10-11T14:06:54.796Z,18.80
2018-10-11T14:09:28.034Z,18.80
2018-10-11T14:12:08.745Z,18.70
2018-10-11T14:14:40.197Z,18.60
2018-10-11T14:17:11.256Z,18.60
2018-10-11T14:19:43.596Z,18.70
2018-10-11T14:22:15.078Z,18.60
2018-10-11T14:24:52.568Z,18.50
2018-10-11T14:27:25.335Z,18.30
2018-10-11T14:30:00.591Z,18.30
2018-10-11T14:32:38.853Z,18.30
2018-10-11T14:35:17.619Z,18.20
2018-10-11T14:37:54.610Z,18.00
2018-10-11T14:40:36.700Z,17.90
2018-10-11T14:43:08.114Z,17.80
2018-10-11T14:45:42.063Z,17.70
2018-10-11T14:48:14.921Z,17.70
2018-10-11T14:50:50.763Z,17.70
2018-10-11T14:53:24.017Z,17.70
2018-10-11T14:55:57.882Z,17.60
2018-10-11T14:58:32.060Z,17.50
2018-10-11T15:01:06.534Z,17.40
2018-10-11T15:03:43.205Z,17.30
2018-10-11T15:06:15.137Z,17.10
2018-10-11T15:08:46.286Z,17.10
2018-10-11T15:11:18.334Z,17.00
2018-10-11T15:13:49.579Z,16.90
2018-10-11T15:16:20.481Z,16.80
2018-10-11T15:18:51.539Z,16.80
2018-10-11T15:21:22.578Z,16.70
2018-10-11T15:23:53.690Z,16.60
2018-10-11T15:26:24.657Z,16.50
2018-10-11T15:28:55.682Z,16.30
2018-10-11T15:31:26.732Z,16.30
2018-10-11T15:33:57.793Z,16.20
2018-10-11T15:36:28.710Z,16.10
2018-10-11T15:39:14.041Z,16.00
2018-10-11T15:41:45.229Z,16.00
2018-10-11T15:44:16.463Z,15.90
2018-10-11T15:46:47.685Z,15.80
2018-10-11T15:49:18.630Z,15.70
2018-10-11T15:51:49.685Z,15.60
2018-10-11T15:54:20.561Z,15.60
2018-10-11T15:56:51.667Z,15.50
2018-10-11T15:59:22.647Z,15.50
2018-10-11T16:01:53.844Z,15.40
2018-10-11T16:04:24.993Z,15.30
2018-10-11T16:06:56.104Z,15.20
2018-10-11T16:09:27.205Z,15.10
2018-10-11T16:11:58.347Z,15.00
2018-10-11T16:14:29.272Z,14.90
2018-10-11T16:17:00.247Z,14.90
2018-10-11T16:19:31.368Z,14.80
2018-10-11T16:22:02.499Z,14.80
2018-10-11T16:24:33.760Z,14.70
2018-10-11T16:27:04.887Z,14.60
2018-10-11T16:29:36.020Z,14.60
2018-10-11T16:32:07.145Z,14.50
2018-10-11T16:34:38.482Z,14.50
2018-10-11T16:37:10.015Z,14.40
2018-10-11T16:39:41.079Z,14.40
2018-10-11T16:42:12.560Z,14.40
2018-10-11T16:44:43.844Z,14.30
2018-10-11T16:47:14.958Z,14.30
2018-10-11T16:49:46.032Z,14.20
2018-10-11T16:52:16.864Z,14.10
2018-10-11T16:54:47.975Z,14.20
2018-10-11T16:57:18.968Z,14.20
2018-10-11T16:59:49.946Z,14.30
2018-10-11T17:02:21.102Z,14.30
2018-10-11T17:04:52.222Z,14.30
2018-10-11T17:07:23.251Z,14.30
2018-10-11T17:09:54.592Z,14.30
2018-10-11T17:12:25.746Z,14.30
2018-10-11T17:14:56.690Z,14.30
2018-10-11T17:17:28.167Z,14.20
2018-10-11T17:19:59.200Z,14.20
2018-10-11T17:22:30.338Z,14.10
2018-10-11T17:25:01.520Z,14.10
2018-10-11T17:27:32.592Z,14.10
2018-10-11T17:30:03.675Z,14.10
2018-10-11T17:32:34.731Z,14.20
2018-10-11T17:35:05.930Z,14.20
2018-10-11T17:37:37.084Z,14.10
2018-10-11T17:40:08.279Z,14.10
2018-10-11T17:42:39.485Z,14.00
2018-10-11T17:45:11.695Z,14.00
2018-10-11T17:47:43.079Z,14.00
2018-10-11T17:50:14.549Z,14.00
2018-10-11T17:52:45.783Z,14.10
2018-10-11T17:55:17.164Z,14.00
2018-10-11T17:57:48.272Z,14.00
2018-10-11T18:00:19.482Z,13.90
2018-10-11T18:02:50.475Z,13.90
2018-10-11T18:05:21.713Z,13.90
2018-10-11T18:07:53.330Z,14.00
2018-10-11T18:10:24.686Z,14.10
2018-10-11T18:12:55.663Z,14.10
2018-10-11T18:15:26.671Z,14.10
2018-10-11T18:17:57.711Z,14.10
2018-10-11T18:20:28.877Z,14.00
2018-10-11T18:23:00.183Z,13.90
2018-10-11T18:25:31.351Z,13.90
2018-10-11T18:28:02.474Z,13.80
2018-10-11T18:30:33.607Z,13.80
2018-10-11T18:33:04.858Z,13.70
2018-10-11T18:35:35.919Z,13.70
2018-10-11T18:38:06.965Z,13.70
2018-10-11T18:40:38.052Z,13.70
2018-10-11T18:43:09.111Z,13.70
2018-10-11T18:45:40.318Z,13.70
2018-10-11T18:48:11.465Z,13.70
2018-10-11T18:50:42.658Z,13.70
2018-10-11T18:53:13.729Z,13.70
2018-10-11T18:55:44.804Z,13.60
2018-10-11T18:58:15.929Z,13.60
2018-10-11T19:00:47.032Z,13.60
2018-10-11T19:03:17.940Z,13.60
2018-10-11T19:05:49.029Z,13.60
2018-10-11T19:08:20.323Z,13.70
2018-10-11T19:10:51.447Z,13.60
2018-10-11T19:13:22.505Z,13.50
2018-10-11T19:15:53.681Z,13.50
2018-10-11T19:18:24.867Z,13.50
2018-10-11T19:20:56.024Z,13.50
2018-10-11T19:23:27.164Z,13.50
2018-10-11T19:25:58.260Z,13.50
2018-10-11T19:28:29.395Z,13.50
2018-10-11T19:31:00.608Z,13.50
2018-10-11T19:33:31.734Z,13.60
2018-10-11T19:36:04.184Z,13.60
2018-10-11T19:38:35.665Z,13.50
2018-10-11T19:41:06.643Z,13.50
2018-10-11T19:43:37.791Z,13.50
2018-10-11T19:46:09.082Z,13.50
2018-10-11T19:48:39.998Z,13.40
2018-10-11T19:51:11.312Z,13.50
2018-10-11T19:53:42.581Z,13.50
2018-10-11T19:56:13.947Z,13.50
2018-10-11T19:58:45.109Z,13.40
2018-10-11T20:01:16.062Z,13.40
2018-10-11T20:03:48.642Z,13.50
2018-10-11T20:06:21.762Z,13.50
2018-10-11T20:08:54.556Z,13.40
2018-10-11T20:11:27.240Z,13.40
2018-10-11T20:14:00.977Z,13.40
2018-10-11T20:16:34.234Z,13.40
2018-10-11T20:19:07.297Z,13.40
2018-10-11T20:21:41.510Z,13.40
2018-10-11T20:24:15.203Z,13.40
2018-10-11T20:26:47.914Z,13.30
2018-10-11T20:29:20.839Z,13.30
2018-10-11T20:31:53.654Z,13.30
2018-10-11T20:34:28.783Z,13.30
2018-10-11T20:37:01.350Z,13.30
2018-10-11T20:39:35.241Z,13.30
2018-10-11T20:42:08.991Z,13.30
2018-10-11T20:44:43.422Z,13.30
2018-10-11T20:47:15.854Z,13.30
2018-10-11T20:49:48.844Z,13.20
2018-10-11T20:52:21.237Z,13.20
2018-10-11T20:54:54.178Z,13.20
2018-10-11T20:57:26.862Z,13.20
2018-10-11T21:00:01.253Z,13.20
2018-10-11T21:02:34.923Z,13.10
2018-10-11T21:05:08.234Z,13.20
2018-10-11T21:07:41.535Z,13.20
2018-10-11T21:10:16.174Z,13.10
2018-10-11T21:12:48.954Z,13.20
2018-10-11T21:15:21.357Z,13.10
2018-10-11T21:17:54.740Z,13.10
2018-10-11T21:20:27.769Z,13.10
2018-10-11T21:23:02.971Z,13.10
2018-10-11T21:25:37.490Z,13.10
2018-10-11T21:28:10.353Z,13.10
2018-10-11T21:30:42.918Z,13.10
2018-10-11T21:33:17.216Z,13.10
2018-10-11T21:35:50.477Z,13.00
2018-10-11T21:38:22.782Z,13.00
2018-10-11T21:40:55.705Z,13.00
2018-10-11T21:43:28.346Z,13.00
2018-10-11T21:46:00.913Z,13.00
2018-10-11T21:48:33.575Z,13.00
2018-10-11T21:51:06.791Z,13.00
2018-10-11T21:53:40.044Z,12.90
2018-10-11T21:56:13.441Z,12.90
2018-10-11T21:58:46.962Z,12.80
2018-10-11T22:01:23.281Z,12.90
2018-10-11T22:03:57.642Z,12.90
2018-10-11T22:06:30.170Z,12.80
2018-10-11T22:09:03.736Z,12.80
2018-10-11T22:11:36.412Z,12.70
2018-10-11T22:14:09.160Z,12.70
2018-10-11T22:16:42.433Z,12.70
2018-10-11T22:19:15.013Z,12.70
2018-10-11T22:21:49.321Z,12.60
2018-10-11T22:24:21.953Z,12.60
2018-10-11T22:26:54.231Z,12.60
2018-10-11T22:29:27.685Z,12.60
2018-10-11T22:32:00.153Z,12.50
2018-10-11T22:34:33.275Z,12.40
2018-10-11T22:37:06.499Z,12.40
2018-10-11T22:39:42.146Z,12.30
2018-10-11T22:42:15.065Z,12.20
2018-10-11T22:44:48.067Z,12.20
2018-10-11T22:47:20.565Z,12.10
2018-10-11T22:49:53.553Z,12.00
2018-10-11T22:52:25.984Z,12.00
2018-10-11T22:54:59.301Z,11.90
2018-10-11T22:57:31.612Z,11.90
2018-10-11T23:00:02.592Z,11.90
2018-10-11T23:02:33.557Z,11.90
2018-10-11T23:05:04.564Z,11.90
2018-10-11T23:07:48.472Z,11.90
2018-10-11T23:10:19.665Z,12.10
2018-10-11T23:12:50.709Z,12.10
2018-10-11T23:15:21.805Z,12.20
2018-10-11T23:17:52.569Z,12.20
2018-10-11T23:20:23.442Z,12.20
2018-10-11T23:22:54.193Z,12.20
2018-10-11T23:25:24.901Z,12.20
2018-10-11T23:27:55.834Z,12.20
2018-10-11T23:30:26.694Z,12.10
2018-10-11T23:32:57.639Z,12.10
2018-10-11T23:35:28.583Z,12.10
2018-10-11T23:37:59.433Z,12.00
2018-10-11T23:40:30.266Z,11.90
2018-10-11T23:43:01.122Z,11.90
2018-10-11T23:45:32.630Z,11.80
2018-10-11T23:48:03.379Z,11.70
2018-10-11T23:50:34.321Z,11.60
2018-10-11T23:53:05.165Z,11.50
2018-10-11T23:55:36.012Z,11.40
2018-10-11T23:58:06.985Z,11.30
